Time;durP1;ratioP1;P1;durP2;ratioP2;P2;SDS_P1;SDS_P2;PMS_P1;PMS_P2;Temp;Humidity;BMP_temperature;BMP_pressure;BME280_temperature;BME280_humidity;BME280_pressure;Samples;Min_cycle;Max_cycle;Signal;HPM_P1;HPM_P2
2021/12/18 00:00:40;;;;;;;35.30;15.70;;;;;;;5.41;96.19;102310.34;5061343;28;20426;-87
2021/12/18 00:03:07;;;;;;;48.03;16.20;;;;;;;5.39;96.51;102313.88;5064098;28;20070;-88
2021/12/18 00:05:32;;;;;;;42.45;16.08;;;;;;;5.36;96.69;102317.38;5070393;28;20032;-87
2021/12/18 00:08:01;;;;;;;38.38;16.15;;;;;;;5.38;96.72;102312.13;5058072;28;20056;-88
2021/12/18 00:10:28;;;;;;;;;;;;;;;5.37;97.36;102306.06;5070344;28;20174;-87
2021/12/18 00:12:54;;;;;;;44.65;16.35;;;;;;;5.39;97.42;102308.69;5072800;28;19998;-86
2021/12/18 00:15:31;;;;;;;;;;;;;;;;;;;;;
2021/12/18 00:17:58;;;;;;;42.65;17.67;;;;;;;5.33;97.31;102313.06;5071751;28;20501;-85
2021/12/18 00:20:26;;;;;;;42.80;17.75;;;;;;;5.39;97.08;102301.72;5073866;28;20072;-86
2021/12/18 00:22:51;;;;;;;47.75;18.05;;;;;;;5.39;97.16;102301.72;5073742;28;20033;-87
2021/12/18 00:25:18;;;;;;;43.78;17.92;;;;;;;5.41;97.81;102297.34;5075080;27;20344;-86
2021/12/18 00:28:06;;;;;;;41.70;17.55;;;;;;;5.41;97.69;102286.94;5075852;28;20108;-87
2021/12/18 00:30:34;;;;;;;43.30;17.80;;;;;;;5.44;97.16;102296.47;5067777;28;20078;-87
2021/12/18 00:33:00;;;;;;;43.78;17.38;;;;;;;5.41;97.56;102284.34;5065590;28;20063;-88
2021/12/18 00:35:26;;;;;;;50.10;18.80;;;;;;;5.40;97.61;102284.38;5068092;28;20044;-89
2021/12/18 00:37:51;;;;;;;45.53;18.38;;;;;;;5.43;97.85;102285.19;5078922;28;20033;-88
2021/12/18 00:40:22;;;;;;;48.83;18.55;;;;;;;5.40;98.00;102271.38;5082940;28;20048;-88
2021/12/18 00:42:55;;;;;;;45.72;18.10;;;;;;;5.42;97.45;102285.22;5092130;27;21609;-87
2021/12/18 00:45:21;;;;;;;51.53;17.60;;;;;;;5.41;98.05;102288.69;5079410;28;20036;-88
2021/12/18 00:47:47;;;;;;;47.83;18.63;;;;;;;5.39;97.68;102293.91;5090733;28;20036;-88
2021/12/18 00:50:17;;;;;;;48.95;18.65;;;;;;;5.37;97.91;102297.41;5077796;28;20040;-87
2021/12/18 00:52:43;;;;;;;43.35;17.20;;;;;;;5.40;98.12;102300.84;5077235;28;20033;-87
2021/12/18 00:55:09;;;;;;;41.53;17.33;;;;;;;5.38;97.67;102297.41;5070056;28;20090;-87
2021/12/18 00:57:36;;;;;;;46.55;18.13;;;;;;;5.34;97.98;102296.59;5071661;28;20028;-87
2021/12/18 01:00:04;;;;;;;40.35;17.75;;;;;;;5.36;98.13;102287.91;5082168;28;20020;-88
2021/12/18 01:02:30;;;;;;;38.03;17.85;;;;;;;5.31;97.63;102288.81;5085778;28;20067;-88
2021/12/18 01:04:56;;;;;;;39.45;17.52;;;;;;;5.34;97.71;102295.75;5073002;28;20029;-88
2021/12/18 01:07:24;;;;;;;37.25;16.35;;;;;;;5.27;96.99;102292.34;5077017;28;20430;-87
2021/12/18 01:12:15;;;;;;;44.33;18.48;;;;;;;5.25;97.88;102281.09;5073271;28;20017;-88
2021/12/18 01:22:49;;;;;;;50.67;19.48;;;;;;;5.16;98.71;102272.56;5069470;28;20396;-88
2021/12/18 01:25:17;;;;;;;45.10;18.48;;;;;;;5.18;98.12;102281.19;5061697;28;20028;-88
2021/12/18 01:27:43;;;;;;;40.90;19.08;;;;;;;5.10;98.20;102283.88;5052553;28;20028;-89
2021/12/18 01:30:11;;;;;;;43.10;18.48;;;;;;;5.09;98.73;102277.81;5059263;28;20017;-89
2021/12/18 01:32:36;;;;;;;44.53;17.90;;;;;;;5.12;98.51;102283.84;5060670;28;20032;-88
2021/12/18 01:35:03;;;;;;;41.92;18.45;;;;;;;5.13;98.64;102278.66;5072029;28;20040;-88
2021/12/18 01:37:29;;;;;;;42.38;18.50;;;;;;;5.19;98.63;102275.09;5065136;28;20139;-89
2021/12/18 01:39:54;;;;;;;46.83;18.25;;;;;;;5.16;98.17;102281.22;5062477;28;20036;-90
2021/12/18 01:53:07;;;;;;;46.42;19.73;;;;;;;5.14;97.86;102275.16;5050268;28;20048;-89
2021/12/18 01:55:35;;;;;;;45.22;19.52;;;;;;;5.13;98.37;102273.44;5050429;28;20036;-89
2021/12/18 01:58:02;;;;;;;54.83;19.50;;;;;;;5.18;98.81;102276.84;5034276;28;20090;-89
2021/12/18 02:00:34;;;;;;;53.40;21.08;;;;;;;5.19;98.52;102264.69;5034765;28;20116;-89
2021/12/18 02:03:00;;;;;;;55.70;20.30;;;;;;;5.22;98.49;102267.25;5039092;28;20083;-89
2021/12/18 02:05:25;;;;;;;47.78;18.55;;;;;;;5.19;98.29;102264.69;5037392;28;20037;-89
2021/12/18 02:07:51;;;;;;;47.00;20.95;;;;;;;5.22;98.21;102269.84;5032968;28;20045;-89
2021/12/18 02:10:19;;;;;;;50.67;20.27;;;;;;;5.16;98.04;102259.56;5050213;28;20107;-89
2021/12/18 02:20:48;;;;;;;47.95;19.80;;;;;;;5.11;98.19;102275.19;5049948;28;20155;-87
2021/12/18 02:23:16;;;;;;;47.20;19.10;;;;;;;5.16;98.34;102276.00;5049591;28;20412;-88
2021/12/18 02:25:45;;;;;;;46.45;19.20;;;;;;;5.14;98.31;102267.34;5067205;28;20226;-88
2021/12/18 02:28:18;;;;;;;53.42;19.88;;;;;;;5.15;98.28;102265.59;5065487;28;20437;-87
2021/12/18 02:30:46;;;;;;;52.03;21.00;;;;;;;5.10;98.69;102263.94;5063103;28;20417;-88
2021/12/18 02:33:11;;;;;;;45.10;19.17;;;;;;;5.09;98.37;102254.41;5074353;28;20100;-87
2021/12/18 02:35:45;;;;;;;47.03;18.63;;;;;;;5.08;98.21;102252.72;5058208;28;20418;-87
2021/12/18 02:38:20;;;;;;;53.50;20.20;;;;;;;5.03;98.46;102254.47;5059335;28;20040;-87
2021/12/18 02:41:01;;;;;;;48.30;19.80;;;;;;;5.09;99.13;102254.41;5068135;28;20056;-88
2021/12/18 02:43:30;;;;;;;52.42;20.25;;;;;;;5.16;98.43;102255.22;5059162;28;20045;-87
2021/12/18 02:45:59;;;;;;;;;;;;;;;5.16;98.76;102239.59;5071392;28;20067;-87
2021/12/18 02:48:29;;;;;;;55.67;20.38;;;;;;;5.15;98.11;102252.59;5069112;28;20317;-87
2021/12/18 02:50:58;;;;;;;48.85;18.88;;;;;;;5.13;98.15;102257.84;5051999;28;20074;-87
2021/12/18 02:53:27;;;;;;;47.03;19.77;;;;;;;5.13;98.63;102254.38;5060654;28;20028;-88
2021/12/18 02:55:54;;;;;;;;;;;;;;;5.16;98.67;102250.00;5063705;28;20135;-88
2021/12/18 02:58:19;;;;;;;53.53;18.98;;;;;;;5.15;98.76;102255.22;5059960;28;19912;-88
2021/12/18 03:00:45;;;;;;;49.70;18.42;;;;;;;5.18;98.30;102260.38;5062628;28;20041;-88
2021/12/18 03:03:14;;;;;;;48.55;19.80;;;;;;;5.17;98.63;102241.31;5071814;28;20051;-88
2021/12/18 03:05:49;;;;;;;48.40;19.88;;;;;;;5.16;98.50;102243.94;5070965;28;20029;-87
2021/12/18 03:08:22;;;;;;;51.40;20.35;;;;;;;5.16;98.29;102233.53;5070925;28;20032;-87
2021/12/18 03:20:07;;;;;;;60.92;22.10;;;;;;;5.17;98.57;102230.91;5057175;28;20039;-88
2021/12/18 03:27:19;;;;;;;70.18;24.08;;;;;;;5.15;98.10;102219.66;5057020;28;20020;-87
2021/12/18 03:29:47;;;;;;;76.13;25.83;;;;;;;5.14;98.20;102217.09;5049421;28;20029;-87
2021/12/18 03:32:15;;;;;;;56.30;24.38;;;;;;;5.08;97.97;102221.50;5052198;28;20470;-88
2021/12/18 03:34:42;;;;;;;63.60;24.98;;;;;;;5.08;98.53;102220.66;5059424;28;20135;-87
2021/12/18 03:37:08;;;;;;;64.13;26.17;;;;;;;5.11;98.34;102217.97;5066146;28;20053;-88
2021/12/18 03:39:35;;;;;;;63.60;24.13;;;;;;;5.10;98.08;102217.13;5067409;28;20032;-88
2021/12/18 03:42:01;;;;;;;68.95;25.23;;;;;;;5.09;97.95;102209.34;5071442;28;20432;-88
2021/12/18 03:44:27;;;;;;;69.53;25.38;;;;;;;5.03;97.69;102212.88;5061302;28;20033;-88
2021/12/18 03:46:52;;;;;;;59.28;23.70;;;;;;;4.99;97.99;102211.19;5061081;28;20106;-88
2021/12/18 03:49:17;;;;;;;65.95;25.05;;;;;;;5.02;98.76;102208.56;5070712;28;20039;-88
2021/12/18 03:51:43;;;;;;;60.55;24.20;;;;;;;5.01;98.47;102208.59;5062311;28;20028;-88
2021/12/18 03:54:09;;;;;;;67.18;24.50;;;;;;;5.05;98.62;102203.34;5068904;28;20123;-88
2021/12/18 03:56:34;;;;;;;59.53;23.98;;;;;;;5.07;98.32;102198.97;5069697;28;20059;-88
2021/12/18 03:59:00;;;;;;;58.45;22.95;;;;;;;5.05;98.48;102198.13;5058432;28;20031;-87
2021/12/18 04:01:26;;;;;;;59.90;22.30;;;;;;;5.07;98.59;102203.31;5053544;28;20033;-88
2021/12/18 04:03:52;;;;;;;64.53;22.67;;;;;;;5.09;97.92;102209.34;5069594;28;20052;-88
2021/12/18 04:06:20;;;;;;;58.80;22.80;;;;;;;5.07;97.88;102201.56;5071229;28;20020;-87
2021/12/18 04:08:46;;;;;;;57.05;22.13;;;;;;;5.12;98.18;102195.44;5060645;28;20116;-88
2021/12/18 04:11:11;;;;;;;55.30;21.42;;;;;;;5.09;97.66;102194.59;5077635;28;20393;-87
2021/12/18 04:13:43;;;;;;;54.05;21.70;;;;;;;5.08;98.07;102198.09;5053599;28;20044;-88
2021/12/18 04:16:08;;;;;;;57.10;23.27;;;;;;;5.10;97.47;102201.53;5066132;28;20047;-88
2021/12/18 04:18:34;;;;;;;57.40;22.30;;;;;;;5.10;97.94;102198.91;5056093;28;20052;-87
2021/12/18 04:21:00;;;;;;;50.88;21.60;;;;;;;5.08;97.63;102199.84;5067114;28;20021;-88
2021/12/18 04:23:28;;;;;;;53.22;21.20;;;;;;;5.06;97.54;102199.84;5065646;28;20062;-88
2021/12/18 04:25:56;;;;;;;57.20;21.70;;;;;;;5.05;98.19;102198.13;5064734;28;20033;-90
2021/12/18 04:28:23;;;;;;;57.70;20.67;;;;;;;5.05;98.18;102195.53;5061686;28;20538;-88
2021/12/18 04:30:48;;;;;;;60.83;22.10;;;;;;;5.08;97.90;102189.44;5051190;28;20057;-88
2021/12/18 04:33:14;;;;;;;58.50;22.65;;;;;;;5.10;97.95;102195.47;5065582;28;20021;-88
2021/12/18 04:35:39;;;;;;;54.22;22.35;;;;;;;5.15;97.78;102192.78;5069717;28;20036;-88
2021/12/18 04:38:05;;;;;;;52.50;21.98;;;;;;;5.15;97.84;102192.78;5060921;28;20033;-88
2021/12/18 04:40:31;;;;;;;62.40;23.90;;;;;;;5.10;97.68;102175.50;5057008;28;20120;-88
2021/12/18 04:42:57;;;;;;;58.83;22.65;;;;;;;5.10;97.87;102183.31;5061187;28;20029;-88
2021/12/18 04:45:23;;;;;;;57.20;23.63;;;;;;;5.00;98.08;102180.84;5070647;28;20103;-88
2021/12/18 04:47:52;;;;;;;62.83;24.63;;;;;;;5.01;98.47;102182.59;5063591;28;20037;-88
2021/12/18 04:50:17;;;;;;;;;;;;;;;5.02;98.47;102192.97;5069546;28;20119;-88
2021/12/18 04:52:45;;;;;;;55.67;21.77;;;;;;;5.05;98.11;102184.28;5073619;28;20261;-89
2021/12/18 04:55:11;;;;;;;61.67;21.40;;;;;;;5.05;98.13;102197.28;5068676;28;20110;-87
2021/12/18 04:57:36;;;;;;;56.28;22.77;;;;;;;5.06;98.29;102199.00;5066247;28;20016;-87
2021/12/18 05:00:06;;;;;;;56.70;22.42;;;;;;;5.09;97.75;102197.22;5069584;28;20032;-88
2021/12/18 05:02:41;;;;;;;51.83;21.33;;;;;;;5.12;97.83;102206.72;5060451;28;20032;-87
2021/12/18 05:05:14;;;;;;;50.80;21.65;;;;;;;5.13;97.67;102200.63;5060082;28;20029;-89
2021/12/18 05:07:43;;;;;;;58.55;21.55;;;;;;;5.14;97.86;102204.94;5070250;28;20178;-88
2021/12/18 05:10:12;;;;;;;50.38;20.60;;;;;;;5.15;97.69;102209.25;5063463;28;20392;-87
2021/12/18 05:12:38;;;;;;;;;;;;;;;5.12;98.04;102211.91;5054133;28;20099;-88
2021/12/18 05:15:12;;;;;;;52.75;21.50;;;;;;;5.14;97.86;102223.16;5067569;28;20009;-88
2021/12/18 05:17:37;;;;;;;59.88;22.30;;;;;;;5.18;97.70;102213.56;5061926;28;20115;-87
2021/12/18 05:20:06;;;;;;;57.45;22.90;;;;;;;5.17;98.09;102212.72;5065771;28;20059;-87
2021/12/18 05:22:32;;;;;;;59.72;22.80;;;;;;;5.17;97.63;102220.50;5071205;28;20037;-87
2021/12/18 05:24:57;;;;;;;54.50;22.67;;;;;;;5.20;97.93;102214.41;5067848;28;20039;-87
2021/12/18 05:27:23;;;;;;;55.20;21.55;;;;;;;5.14;97.66;102217.09;5059186;28;20025;-88
2021/12/18 05:29:48;;;;;;;52.85;21.63;;;;;;;5.17;97.85;102211.84;5061570;28;20048;-88
2021/12/18 05:32:16;;;;;;;53.63;21.13;;;;;;;5.19;97.99;102210.97;5059273;28;20054;-88
2021/12/18 05:34:44;;;;;;;53.25;22.08;;;;;;;5.15;97.83;102209.25;5060511;28;20056;-89
2021/12/18 05:39:56;;;;;;;53.40;23.65;;;;;;;5.13;98.21;102208.44;5072532;28;20098;-88
2021/12/18 05:42:22;;;;;;;60.75;23.33;;;;;;;5.14;98.04;102206.69;5073705;28;20025;-88
2021/12/18 05:44:47;;;;;;;55.65;22.27;;;;;;;5.15;97.87;102209.25;5071768;28;20024;-87
2021/12/18 05:47:22;;;;;;;58.55;23.25;;;;;;;5.14;97.78;102212.75;5056881;28;20491;-88
2021/12/18 05:49:59;;;;;;;55.60;22.98;;;;;;;5.13;97.66;102210.19;5036798;28;20096;-83
2021/12/18 05:52:25;;;;;;;59.97;23.75;;;;;;;5.13;97.78;102202.38;5052009;28;20120;-88
2021/12/18 05:54:53;;;;;;;53.30;23.23;;;;;;;5.14;97.82;102204.09;5068096;28;20128;-88
2021/12/18 05:57:21;;;;;;;51.40;22.92;;;;;;;5.17;98.24;102202.31;5072942;28;20491;-88
2021/12/18 05:59:46;;;;;;;57.15;24.15;;;;;;;5.15;97.93;102204.06;5054474;28;20048;-87
2021/12/18 06:02:15;;;;;;;54.95;23.50;;;;;;;5.16;98.07;102204.94;5067401;28;20033;-89
2021/12/18 06:04:52;;;;;;;62.90;24.38;;;;;;;5.13;98.03;102200.63;5060606;28;20414;-88
2021/12/18 06:07:39;;;;;;;51.13;23.35;;;;;;;5.04;97.82;102198.13;5063414;28;20135;-89
2021/12/18 06:10:05;;;;;;;55.83;24.92;;;;;;;5.07;98.31;102201.56;5052189;28;20029;-88
2021/12/18 06:12:33;;;;;;;61.05;23.85;;;;;;;5.10;98.19;102182.47;5064204;28;20077;-87
2021/12/18 06:15:03;;;;;;;61.80;23.90;;;;;;;5.07;98.27;102185.94;5071297;28;20031;-88
2021/12/18 06:17:39;;;;;;;;;;;;;;;;;;;;;
2021/12/18 06:20:05;;;;;;;70.63;24.42;;;;;;;5.04;97.98;102192.94;5056320;28;20046;-89
2021/12/18 06:22:30;;;;;;;56.28;24.52;;;;;;;5.08;98.01;102199.84;5071666;28;20111;-89
2021/12/18 06:24:59;;;;;;;62.60;23.70;;;;;;;5.02;97.81;102200.78;5059647;28;20045;-87
2021/12/18 06:27:24;;;;;;;62.95;23.95;;;;;;;5.03;97.91;102205.06;5052219;28;20086;-87
2021/12/18 06:29:53;;;;;;;52.88;21.73;;;;;;;5.07;97.41;102201.56;5062283;28;20438;-87
2021/12/18 06:32:18;;;;;;;53.80;20.88;;;;;;;5.07;97.62;102200.69;5056685;28;20040;-87
2021/12/18 06:34:43;;;;;;;59.00;23.02;;;;;;;5.08;97.14;102202.44;5069736;28;20028;-88
2021/12/18 06:37:09;;;;;;;53.72;22.40;;;;;;;5.05;97.14;102203.34;5071292;28;20043;-88
2021/12/18 06:39:35;;;;;;;48.42;21.65;;;;;;;5.04;97.17;102201.63;5053479;28;20112;-88
2021/12/18 06:42:04;;;;;;;51.80;20.98;;;;;;;5.05;97.42;102207.69;5070690;28;20047;-88
2021/12/18 06:44:30;;;;;;;;;;;;;;;5.08;97.67;102207.66;5064334;28;20119;-89
2021/12/18 06:46:56;;;;;;;53.47;20.80;;;;;;;5.10;97.31;102211.06;5058762;28;19928;-87
2021/12/18 06:49:22;;;;;;;48.65;21.02;;;;;;;5.12;96.89;102203.22;5060191;28;20036;-88
2021/12/18 06:51:47;;;;;;;55.38;21.92;;;;;;;5.15;96.98;102213.59;5062021;28;20084;-86
2021/12/18 06:54:13;;;;;;;49.17;21.15;;;;;;;5.12;96.22;102208.44;5066439;28;20024;-86
2021/12/18 06:56:38;;;;;;;49.47;19.70;;;;;;;5.14;96.53;102201.50;5069857;28;20025;-87
2021/12/18 06:59:07;;;;;;;48.42;21.10;;;;;;;5.14;96.88;102206.69;5055218;28;20047;-86
2021/12/18 07:01:32;;;;;;;45.08;19.75;;;;;;;5.11;96.64;102202.38;5068075;28;20098;-87
2021/12/18 07:04:00;;;;;;;51.13;20.90;;;;;;;5.12;96.60;102204.13;5070181;28;20036;-87
2021/12/18 07:06:31;;;;;;;51.13;21.80;;;;;;;5.12;96.68;102200.63;5083740;28;20020;-87
2021/12/18 07:08:56;;;;;;;45.38;20.13;;;;;;;5.10;96.45;102206.72;5073226;28;20036;-86
2021/12/18 07:11:25;;;;;;;41.30;20.40;;;;;;;5.12;96.87;102203.22;5087862;28;20039;-87
2021/12/18 07:13:50;;;;;;;47.13;19.77;;;;;;;5.15;96.96;102211.84;5077999;28;20041;-87
2021/12/18 07:16:16;;;;;;;44.08;20.17;;;;;;;5.15;96.90;102209.25;5086521;28;20024;-89
2021/12/18 07:18:43;;;;;;;45.28;19.90;;;;;;;5.16;97.12;102205.78;5092339;28;20034;-89
2021/12/18 07:21:09;;;;;;;57.80;20.88;;;;;;;5.16;97.20;102210.13;5086418;28;20013;-89
2021/12/18 07:23:37;;;;;;;44.67;20.65;;;;;;;5.16;97.15;102204.94;5082263;28;20036;-89
2021/12/18 07:26:02;;;;;;;51.47;21.45;;;;;;;5.12;96.55;102204.13;5091778;28;20101;-89
2021/12/18 07:28:33;;;;;;;49.78;19.38;;;;;;;5.16;97.64;102199.75;5091286;28;20124;-88
2021/12/18 07:30:59;;;;;;;46.08;20.75;;;;;;;5.15;97.16;102213.59;5094888;28;20032;-89
2021/12/18 07:33:27;;;;;;;46.60;20.25;;;;;;;5.16;97.01;102208.41;5103367;28;20062;-89
2021/12/18 07:35:52;;;;;;;44.67;20.45;;;;;;;5.28;97.92;102202.16;5084225;28;20146;-89
2021/12/18 07:38:20;;;;;;;44.53;19.67;;;;;;;5.24;96.27;102195.28;5081420;28;20033;-89
2021/12/18 07:40:46;;;;;;;42.85;18.33;;;;;;;5.22;96.76;102197.88;5069447;28;20032;-89
2021/12/18 07:43:11;;;;;;;41.90;19.75;;;;;;;5.20;96.81;102198.81;5089397;28;20143;-88
2021/12/18 07:45:37;;;;;;;41.85;19.90;;;;;;;5.19;96.30;102197.97;5085514;28;20038;-89
2021/12/18 07:48:05;;;;;;;42.35;19.67;;;;;;;5.20;96.60;102204.00;5075953;28;20020;-88
2021/12/18 07:50:31;;;;;;;54.13;19.48;;;;;;;5.22;96.98;102210.88;5057186;28;20109;-88
2021/12/18 07:53:00;;;;;;;46.63;19.77;;;;;;;5.22;97.31;102210.03;5060187;28;20457;-88
2021/12/18 07:55:29;;;;;;;40.88;19.48;;;;;;;5.31;97.26;102209.94;5058118;28;20037;-88
2021/12/18 07:57:55;;;;;;;46.42;19.40;;;;;;;5.25;96.87;102200.44;5063459;28;20028;-87
2021/12/18 08:00:24;;;;;;;38.22;18.30;;;;;;;5.23;97.02;102202.22;5072207;28;20037;-87
2021/12/18 08:02:50;;;;;;;39.03;18.63;;;;;;;5.23;96.86;102201.38;5075539;28;20059;-90
2021/12/18 08:05:15;;;;;;;36.47;17.85;;;;;;;5.21;97.74;102210.94;5076522;28;20453;-89
2021/12/18 08:07:43;;;;;;;43.17;19.10;;;;;;;5.19;98.03;102204.88;5066079;28;20117;-88
2021/12/18 08:13:01;;;;;;;43.58;18.42;;;;;;;5.19;98.35;102199.66;5058226;28;20041;-89
2021/12/18 08:15:27;;;;;;;43.95;18.77;;;;;;;5.20;98.02;102210.06;5055288;28;20025;-89
2021/12/18 08:17:57;;;;;;;38.70;17.63;;;;;;;5.22;98.10;102205.69;5054171;28;20032;-89
2021/12/18 08:20:23;;;;;;;35.60;15.40;;;;;;;5.24;98.28;102208.28;5060068;28;20040;-87
2021/12/18 08:23:24;;;;;;;;;;;;;;;;;;;;;
2021/12/18 08:25:52;;;;;;;36.75;16.88;;;;;;;5.26;98.13;102206.50;5023741;28;20120;-90
2021/12/18 08:28:17;;;;;;;36.47;16.98;;;;;;;5.30;98.30;102205.59;5032116;28;20048;-89
2021/12/18 08:30:43;;;;;;;45.58;16.35;;;;;;;5.31;98.27;102202.13;5037540;28;20021;-90
2021/12/18 08:33:09;;;;;;;42.35;18.00;;;;;;;5.35;98.28;102201.19;5036355;28;20025;-88
2021/12/18 08:35:37;;;;;;;35.90;16.13;;;;;;;5.35;97.88;102203.78;5025520;28;20476;-88
2021/12/18 08:38:04;;;;;;;40.83;18.42;;;;;;;5.35;98.02;102209.00;5033630;28;20080;-90
2021/12/18 08:40:30;;;;;;;42.08;17.80;;;;;;;5.34;97.97;102202.94;5032617;28;20033;-89
2021/12/18 08:42:56;;;;;;;47.22;21.15;;;;;;;5.36;97.80;102199.44;5033073;28;20041;-86
2021/12/18 08:45:22;;;;;;;44.05;19.17;;;;;;;5.33;97.97;102202.94;5035591;28;20026;-89
2021/12/18 08:47:47;;;;;;;43.50;20.75;;;;;;;5.28;98.13;102197.81;5032780;28;20088;-89
2021/12/18 08:50:21;;;;;;;47.47;20.33;;;;;;;5.27;98.42;102195.25;5033725;28;20037;-89
2021/12/18 08:52:51;;;;;;;43.45;21.02;;;;;;;5.27;98.35;102196.09;5023707;28;20214;-90
2021/12/18 08:55:24;;;;;;;47.85;21.02;;;;;;;5.28;98.47;102194.34;5037226;28;20473;-88
2021/12/18 08:58:16;;;;;;;42.78;18.83;;;;;;;5.29;98.40;102196.91;5032702;28;20114;-89
2021/12/18 09:04:54;;;;;;;41.85;18.67;;;;;;;5.32;98.20;102204.69;4961235;29;20124;-90
2021/12/18 09:07:32;;;;;;;42.30;19.52;;;;;;;5.30;98.16;102203.88;4938299;28;20134;-90
2021/12/18 09:10:05;;;;;;;42.35;18.88;;;;;;;5.26;98.43;102202.16;4960116;28;20042;-89
2021/12/18 09:12:44;;;;;;;46.78;19.52;;;;;;;5.32;98.61;102196.03;4958222;28;20182;-89
2021/12/18 09:15:13;;;;;;;38.00;18.15;;;;;;;5.31;98.61;102200.38;4960338;28;20076;-90
2021/12/18 09:17:41;;;;;;;39.00;18.98;;;;;;;5.31;98.32;102207.31;4960725;28;20201;-88
2021/12/18 09:20:25;;;;;;;42.63;19.08;;;;;;;5.33;98.09;102200.34;4974632;28;20046;-89
2021/12/18 09:22:53;;;;;;;41.88;17.77;;;;;;;5.33;98.13;102189.94;4952817;28;20118;-88
2021/12/18 09:25:29;;;;;;;37.90;16.77;;;;;;;5.41;98.30;102192.44;4955232;28;20141;-89
2021/12/18 09:27:59;;;;;;;40.72;18.65;;;;;;;5.44;98.06;102192.38;4972328;28;20035;-89
2021/12/18 09:30:27;;;;;;;38.58;18.65;;;;;;;5.47;98.01;102189.75;4958630;28;20069;-89
2021/12/18 09:32:53;;;;;;;32.42;17.50;;;;;;;5.46;97.49;102185.44;4930677;28;20057;-89
2021/12/18 09:35:38;;;;;;;41.67;17.95;;;;;;;5.41;97.88;102185.47;4972752;28;20035;-88
2021/12/18 09:38:13;;;;;;;35.92;16.67;;;;;;;5.39;97.84;102184.66;4970665;28;20043;-91
2021/12/18 09:41:04;;;;;;;32.63;16.10;;;;;;;5.42;97.65;102183.75;5006785;28;20197;-89
2021/12/18 09:43:40;;;;;;;35.85;16.20;;;;;;;5.41;97.64;102182.03;5006839;28;20465;-88
2021/12/18 09:46:09;;;;;;;33.42;15.15;;;;;;;5.50;98.14;102171.50;5012447;28;20125;-88
2021/12/18 09:48:46;;;;;;;30.98;13.23;;;;;;;5.52;98.18;102175.75;5003467;28;20038;-88
2021/12/18 09:51:23;;;;;;;29.33;13.93;;;;;;;5.51;97.19;102168.84;5015024;28;20034;-88
2021/12/18 09:53:56;;;;;;;26.05;12.82;;;;;;;5.53;97.50;102168.84;5005262;28;20038;-89
2021/12/18 09:56:32;;;;;;;26.75;13.30;;;;;;;5.54;97.09;102163.59;5013452;28;20079;-89
2021/12/18 09:59:00;;;;;;;27.60;13.85;;;;;;;5.55;97.25;102157.50;5013193;28;20034;-87
2021/12/18 10:01:27;;;;;;;28.33;12.67;;;;;;;5.52;97.14;102160.16;5008612;28;20203;-89
2021/12/18 10:03:57;;;;;;;24.75;12.43;;;;;;;5.54;97.38;102160.16;5021588;28;20045;-89
2021/12/18 10:06:42;;;;;;;32.35;13.15;;;;;;;5.56;97.12;102150.56;5013041;28;20057;-87
2021/12/18 10:09:13;;;;;;;25.67;12.18;;;;;;;5.57;96.98;102144.50;5004808;28;20080;-89
2021/12/18 10:12:06;;;;;;;26.77;13.50;;;;;;;5.59;96.73;102142.69;5011567;28;20474;-88
2021/12/18 10:14:42;;;;;;;26.08;13.18;;;;;;;5.59;97.06;102140.09;5017592;28;20053;-88
2021/12/18 10:17:25;;;;;;;31.25;13.80;;;;;;;5.59;96.72;102132.28;5011679;28;20100;-88
2021/12/18 10:23:32;;;;;;;29.80;13.52;;;;;;;5.68;96.15;102132.16;4980323;28;20040;-88
2021/12/18 10:26:11;;;;;;;24.92;13.48;;;;;;;5.66;96.15;102120.91;4993185;28;20049;-89
2021/12/18 10:28:46;;;;;;;32.05;13.73;;;;;;;5.68;96.18;102119.16;4988848;28;20046;-88
2021/12/18 10:31:49;;;;;;;26.58;12.50;;;;;;;5.75;95.96;102112.09;5057479;27;1177421;-70
2021/12/18 10:34:17;;;;;;;27.65;13.18;;;;;;;5.75;96.13;102096.47;5050831;28;20498;-70
2021/12/18 10:37:10;;;;;;;24.95;12.32;;;;;;;5.78;95.83;102104.22;5040346;28;20021;-71
2021/12/18 10:39:37;;;;;;;24.85;11.48;;;;;;;5.81;95.54;102101.56;5040293;28;20108;-71
2021/12/18 10:42:15;;;;;;;23.52;11.15;;;;;;;5.88;95.16;102099.72;5040330;28;20040;-71
2021/12/18 10:44:58;;;;;;;25.20;10.88;;;;;;;5.90;94.69;102084.94;5041459;28;20529;-72
2021/12/18 10:47:24;;;;;;;23.05;10.48;;;;;;;5.89;95.01;102089.25;5042231;28;20865;-70
2021/12/18 10:49:50;;;;;;;24.10;12.02;;;;;;;5.91;94.85;102090.09;5041469;28;20045;-74
2021/12/18 10:52:15;;;;;;;23.83;10.38;;;;;;;5.95;94.54;102078.75;5038269;28;20075;-72
2021/12/18 10:54:40;;;;;;;19.23;9.65;;;;;;;5.94;94.46;102084.00;5041833;28;20028;-73
2021/12/18 10:57:20;;;;;;;20.63;9.60;;;;;;;5.92;94.73;102076.22;5061808;28;20021;-72
2021/12/18 10:59:48;;;;;;;20.02;9.77;;;;;;;5.93;94.35;102071.84;5037200;28;20119;-72
2021/12/18 11:02:15;;;;;;;20.50;8.68;;;;;;;5.93;93.61;102072.75;5042808;28;20430;-73
2021/12/18 11:04:42;;;;;;;20.58;9.35;;;;;;;5.97;94.09;102066.59;5037526;28;20398;-74
2021/12/18 11:07:17;;;;;;;18.48;8.82;;;;;;;5.99;93.63;102063.94;5029700;28;20873;-71
2021/12/18 11:09:59;;;;;;;15.15;8.00;;;;;;;6.04;93.86;102049.06;5037693;28;20034;-71
2021/12/18 11:15:08;;;;;;;17.52;8.65;;;;;;;6.05;93.58;102043.00;5036613;28;20068;-72
2021/12/18 11:17:33;;;;;;;17.10;8.20;;;;;;;5.99;93.51;102045.72;5060772;28;20505;-72
2021/12/18 11:19:59;;;;;;;17.67;9.10;;;;;;;5.95;93.62;102037.09;5058917;28;20179;-72
2021/12/18 11:22:24;;;;;;;15.32;7.93;;;;;;;5.96;93.49;102038.81;5056153;28;20764;-74
2021/12/18 11:25:05;;;;;;;18.27;7.95;;;;;;;5.99;93.54;102037.91;5064227;28;20066;-71
2021/12/18 11:27:33;;;;;;;19.17;8.52;;;;;;;5.92;94.73;102024.13;5063601;28;20033;-72
2021/12/18 11:30:02;;;;;;;18.65;9.63;;;;;;;5.97;94.66;102034.47;5056532;28;20045;-72
2021/12/18 11:32:33;;;;;;;21.80;9.60;;;;;;;5.96;94.80;102027.53;5062133;28;20418;-71
2021/12/18 11:35:04;;;;;;;17.08;8.65;;;;;;;5.95;94.01;102024.09;5063327;28;20040;-71
2021/12/18 11:37:40;;;;;;;21.33;9.68;;;;;;;6.04;94.68;102023.03;5063438;28;20047;-71
2021/12/18 11:40:07;;;;;;;23.33;10.35;;;;;;;6.06;94.15;102021.28;5050698;28;20052;-70
2021/12/18 11:42:34;;;;;;;21.83;9.52;;;;;;;6.02;94.19;102020.47;5045958;28;20691;-71
2021/12/18 11:45:03;;;;;;;19.23;9.70;;;;;;;5.97;94.23;102019.72;5051406;28;20020;-71
2021/12/18 11:47:42;;;;;;;17.80;8.88;;;;;;;6.02;94.33;102012.66;5048875;28;20056;-70
2021/12/18 11:50:19;;;;;;;20.05;8.77;;;;;;;5.99;94.55;102010.13;5035132;28;20125;-71
2021/12/18 11:53:02;;;;;;;19.80;9.73;;;;;;;6.05;94.38;102022.16;5041081;28;20037;-71
2021/12/18 11:55:48;;;;;;;20.65;9.93;;;;;;;5.99;94.55;102023.13;5046314;28;20414;-72
2021/12/18 11:58:27;;;;;;;18.58;10.57;;;;;;;5.96;94.52;102017.97;5048886;28;20044;-71
2021/12/18 12:01:20;;;;;;;21.00;12.00;;;;;;;5.89;95.26;102011.13;5050794;28;20041;-72
2021/12/18 12:03:51;;;;;;;24.02;11.70;;;;;;;5.90;95.57;102007.69;5048044;28;20119;-76
2021/12/18 12:06:35;;;;;;;24.02;11.50;;;;;;;5.95;95.41;102010.22;5049295;28;20044;-74
2021/12/18 12:09:23;;;;;;;27.08;11.75;;;;;;;5.96;95.64;101999.75;5047580;28;20234;-69
2021/12/18 12:12:06;;;;;;;26.30;12.75;;;;;;;6.00;95.86;102008.34;5038811;28;20521;-71
2021/12/18 12:14:34;;;;;;;28.13;13.25;;;;;;;5.99;95.69;102002.31;5047818;28;20065;-71
2021/12/18 12:17:03;;;;;;;23.42;13.15;;;;;;;6.00;95.87;102004.00;5042686;28;20041;-74
2021/12/18 12:19:34;;;;;;;27.60;12.27;;;;;;;6.01;95.78;102003.13;5046264;28;20050;-71
2021/12/18 12:22:01;;;;;;;32.05;13.70;;;;;;;6.06;95.64;101998.69;5040604;28;20086;-69
2021/12/18 12:24:29;;;;;;;28.25;12.70;;;;;;;6.10;95.70;102001.22;5037754;28;20162;-72
2021/12/18 12:27:15;;;;;;;21.80;11.73;;;;;;;6.16;95.47;101993.31;5049617;28;20076;-71
2021/12/18 12:29:49;;;;;;;19.13;10.50;;;;;;;6.13;95.36;101990.75;5030446;28;20275;-72
2021/12/18 12:32:16;;;;;;;24.05;12.30;;;;;;;6.15;95.73;101997.63;5045805;28;20047;-75
2021/12/18 12:34:43;;;;;;;22.10;11.82;;;;;;;6.15;96.01;101983.75;5048363;28;20082;-71